Airfield :
LOGIN :

Register | Disclaimer

   EN    FR    IT 

 










Legend :    VFR   Marginal VFR   IFR   Intensive IFR   Very Intensive IFR
Visi :
Ceiling :
>= 8 km
>= 3000ft
5 to 8 km
1000 to 3000 ft
1500m to 5 km
500 to 1000 ft
800 to 1500m
200 to 500 ft
< 800m
< 200 ft
Symbols :   Thunderstorms  Fog  Heavy snow  Heavy precipitations  Wind > 20 kt
SIGMETs :     Misc.  Thunderstorms  Icing  Turbulence  Mountain Waves  Volcanic Ashes







- Airport Elevation : 978 ft
- IATA code : LNZ


LOWL - Linz

CURRENT METAR :
  • 192150Z AUTO VRB02KT 9999 FEW060 BKN070 20/14 Q1024

EXPIRED METARs :
  • 192120Z AUTO 25003KT 9999 FEW060 BKN070 20/14 Q1024
  • 192050Z AUTO 30003KT 9999 OVC070 21/14 Q1024 NOSIG
  • 192020Z AUTO 33003KT 9999 FEW060 BKN070 22/13 Q1024 NOSIG
  • 191950Z AUTO 34002KT 9999 OVC070 22/13 Q1024 NOSIG
  • 191920Z AUTO 01004KT 330V070 9999 OVC070 22/13 Q1024 NOSIG

TAF TAF LOWL
Valid from the 19 at 18:00 until the 20 at 18:00 UTC


191715Z 1918/2018 31008KT 9999 SCT080 TX29/2014Z TN15/2003Z
BECMG 1918/1920 27004KT
BECMG 2004/2007 08005KT
No reported NOTAMs for that airfield.



MET'MAP, your aeronautical weather chart ! - Copyright ORBIFLY December 2007 - Disclaimer

ORBIFLY MET'MAP TEAM :

Programming & Development : Alexandra Zaïnal
Concept & Development : Baudouin d'Aumeries
Co-Development & Prog : Marc-Olivier Méhu
Technical & hardware support : Manuel Goepfert

Contact : metmap@orbifly.com




SOURCES & CREDITS :

   NOAA